Terminal Aerodrome Forecast
Issued by NWS

Home | Current Version | Previous Version | Graphics & Text | Print | Product List | Glossary On
Versions: 1 2 3 4 5 6 7 8 9 10 11 12 13 14 15 16 17 18 19 20 21 22
884
FTUS43 KIWX 102340
TAFSBN
TAF
KSBN 102340Z 1100/1124 29010KT 4SM -SHSN SCT020 OVC035
      TEMPO 1100/1103 2SM -SHSN OVC020
     FM111000 30010KT 2SM -SHSN OVC020
     FM111600 31010KT 4SM -SHSN BKN030=

USA.gov is the U.S. government's official web portal to all federal, state and local government web resources and services.